Archival Weather

Chicago O'Hare International

Chicago, Illinois (KORD)

Report from: Saturday, March 18, 2023 12:51 AM CDT
Current time: Tuesday, February 27, 2024 5:01 AM CST

Current weather – Weather history – Daily summaries
Weather forecast

Temperature-6.1°C (21.0°F)
Wind chill-14.8°C (5.3°F)
Dew point-12.8°C (9.0°F)
Winds 18 kts (9.3 m/s, 20.7 mph) West-Northwest (300°)
Wind gusts 25 kts (12.9 m/s, 28.8 mph)
Visibility10 mi. (16.1 km)
Clouds Scattered clouds 3,400 ft. (1,036 m)
Altimeter29.89 in.Hg (1012 mB)
Relative humidity59 %
Density altitude-2,565 ft. (-782 m)
Sea-level pressure101.3 kPa (1013 mB, 29.91 in.Hg)
Max temp last 6 hours-1.1°C (30.0°F)
Min temp last 6 hours-6.1°C (21.0°F)
Max temp last 24 hours8.3°C (46.9°F)
Min temp last 24 hours-6.1°C (21.0°F)
Remarks Automated weather observing station with precipitation discriminator
Pressure falling more quickly
Flight conditions Visual Meteorological Conditions
Raw dataKORD 180551Z 30018G25KT 10SM SCT034 M06/M13 A2989 RMK AO2 SLP130 I1000 I6000 T10611128 11011 21061 400831061 58001
An error has occurred. This application may no longer respond until reloaded. Reload 🗙